Time,TemperatureF,DewpointF,PressureIn,WindDirection,WindDirectionDegrees,WindSpeedMPH,WindSpeedGustMPH,Humidity,HourlyPrecipIn,Conditions,Clouds,dailyrainin,SoftwareType,DateUTC
2013-01-30 00:00:00,52.0,47.3,29.98,WNW,298,3.0,4.0,84,0.00,,---,0.00,VWS V14.01,2013-01-30 05:00:00,
2013-01-30 00:03:00,51.9,47.2,29.98,WNW,298,2.0,4.0,84,0.00,,---,0.00,VWS V14.01,2013-01-30 05:03:00,
2013-01-30 00:05:00,51.4,46.7,29.96,WNW,298,2.0,4.0,84,0.00,,---,0.00,VWS V14.01,2013-01-30 05:05:00,
2013-01-30 00:08:00,51.6,46.9,29.96,WNW,298,3.0,4.0,84,0.00,,---,0.00,VWS V14.01,2013-01-30 05:08:00,
2013-01-30 00:10:00,51.3,47.0,29.96,WNW,298,2.0,4.0,85,0.00,,---,0.00,VWS V14.01,2013-01-30 05:10:00,
2013-01-30 00:13:00,51.3,47.0,29.96,WNW,298,2.0,4.0,85,0.00,,---,0.00,VWS V14.01,2013-01-30 05:13:00,
2013-01-30 00:15:00,51.1,47.1,29.96,WNW,298,2.0,4.0,86,0.00,,---,0.00,VWS V14.01,2013-01-30 05:15:00,
2013-01-30 00:18:00,51.1,47.1,29.96,WNW,298,3.0,4.0,86,0.00,,---,0.00,VWS V14.01,2013-01-30 05:18:00,
2013-01-30 00:20:00,50.8,46.8,29.96,WNW,298,3.0,3.0,86,0.00,,---,0.00,VWS V14.01,2013-01-30 05:20:00,
2013-01-30 00:23:00,50.8,46.5,29.96,WNW,298,2.0,3.0,85,0.00,,---,0.00,VWS V14.01,2013-01-30 05:23:00,
2013-01-30 00:25:00,50.7,47.0,29.96,WNW,298,3.0,3.0,87,0.00,,---,0.00,VWS V14.01,2013-01-30 05:25:00,
2013-01-30 00:28:00,50.7,46.7,29.96,WNW,298,3.0,3.0,86,0.00,,---,0.00,VWS V14.01,2013-01-30 05:28:00,
2013-01-30 00:30:00,50.8,47.4,29.96,WNW,298,3.0,3.0,88,0.00,,---,0.00,VWS V14.01,2013-01-30 05:30:00,
2013-01-30 00:33:00,50.7,47.0,29.96,WNW,298,2.0,3.0,87,0.00,,---,0.00,VWS V14.01,2013-01-30 05:33:00,
2013-01-30 00:35:00,50.7,47.3,29.96,WNW,298,0.0,3.0,88,0.00,,---,0.00,VWS V14.01,2013-01-30 05:35:00,
2013-01-30 00:38:00,50.8,47.1,29.96,WNW,298,1.0,3.0,87,0.00,,---,0.00,VWS V14.01,2013-01-30 05:38:00,
2013-01-30 00:40:00,51.0,47.6,29.96,WNW,298,1.0,3.0,88,0.00,,---,0.00,VWS V14.01,2013-01-30 05:40:00,
2013-01-30 00:43:00,50.8,47.4,29.96,WNW,298,1.0,1.0,88,0.00,,---,0.00,VWS V14.01,2013-01-30 05:43:00,
2013-01-30 00:45:00,51.1,47.7,29.95,WNW,298,1.0,3.0,88,0.00,,---,0.00,VWS V14.01,2013-01-30 05:45:00,
2013-01-30 00:48:00,51.1,48.0,29.96,WNW,298,2.0,3.0,89,0.00,,---,0.00,VWS V14.01,2013-01-30 05:48:00,
2013-01-30 00:50:00,51.1,47.7,29.95,WNW,298,2.0,2.0,88,0.00,,---,0.00,VWS V14.01,2013-01-30 05:50:00,
2013-01-30 00:53:00,51.1,47.7,29.95,WNW,298,1.0,2.0,88,0.00,,---,0.00,VWS V14.01,2013-01-30 05:53:00,
2013-01-30 00:55:00,50.8,47.1,29.95,WNW,298,3.0,3.0,87,0.00,,---,0.00,VWS V14.01,2013-01-30 05:55:00,
2013-01-30 00:58:00,51.0,47.3,29.95,WNW,298,1.0,3.0,87,0.00,,---,0.00,VWS V14.01,2013-01-30 05:58:00,
2013-01-30 01:00:00,50.8,47.4,29.94,WNW,298,2.0,3.0,88,0.00,,---,0.00,VWS V14.01,2013-01-30 06:00:00,
2013-01-30 01:03:00,50.8,47.4,29.95,WNW,298,2.0,3.0,88,0.00,,---,0.00,VWS V14.01,2013-01-30 06:03:00,
2013-01-30 01:05:00,50.7,47.6,29.94,WNW,298,1.0,3.0,89,0.00,,---,0.00,VWS V14.01,2013-01-30 06:05:00,
2013-01-30 01:08:00,50.7,47.6,29.94,WNW,298,3.0,3.0,89,0.00,,---,0.00,VWS V14.01,2013-01-30 06:08:00,
2013-01-30 01:10:00,50.7,47.6,29.94,WNW,298,3.0,3.0,89,0.00,,---,0.00,VWS V14.01,2013-01-30 06:10:00,
2013-01-30 01:13:00,50.7,47.6,29.94,WNW,298,0.0,1.0,89,0.00,,---,0.00,VWS V14.01,2013-01-30 06:13:00,
2013-01-30 01:15:00,50.5,47.7,29.93,WNW,298,2.0,3.0,90,0.00,,---,0.00,VWS V14.01,2013-01-30 06:15:00,
2013-01-30 01:18:00,50.5,47.4,29.94,WNW,298,1.0,3.0,89,0.00,,---,0.00,VWS V14.01,2013-01-30 06:18:00,
2013-01-30 01:20:00,50.5,47.7,29.93,WNW,298,0.0,3.0,90,0.00,,---,0.00,VWS V14.01,2013-01-30 06:20:00,
2013-01-30 01:23:00,50.5,47.7,29.93,WNW,298,0.0,3.0,90,0.00,,---,0.00,VWS V14.01,2013-01-30 06:23:00,
2013-01-30 01:25:00,50.5,47.7,29.93,WNW,298,1.0,2.0,90,0.00,,---,0.00,VWS V14.01,2013-01-30 06:25:00,
2013-01-30 01:28:00,50.5,47.7,29.93,WNW,298,1.0,2.0,90,0.00,,---,0.00,VWS V14.01,2013-01-30 06:28:00,
2013-01-30 01:30:00,50.7,47.9,29.93,WNW,298,1.0,3.0,90,0.00,,---,0.00,VWS V14.01,2013-01-30 06:30:00,
2013-01-30 01:33:00,50.7,48.2,29.93,WNW,298,2.0,3.0,91,0.00,,---,0.00,VWS V14.01,2013-01-30 06:33:00,
2013-01-30 01:35:00,50.5,47.7,29.93,WNW,298,0.0,4.0,90,0.00,,---,0.00,VWS V14.01,2013-01-30 06:35:00,
2013-01-30 01:38:00,50.5,47.7,29.93,WNW,298,0.0,4.0,90,0.00,,---,0.00,VWS V14.01,2013-01-30 06:38:00,
2013-01-30 01:40:00,50.5,47.7,29.93,WNW,298,1.0,2.0,90,0.00,,---,0.00,VWS V14.01,2013-01-30 06:40:00,
2013-01-30 01:43:00,50.5,47.7,29.93,WNW,298,1.0,1.0,90,0.00,,---,0.00,VWS V14.01,2013-01-30 06:43:00,
2013-01-30 01:45:00,50.7,48.2,29.92,WNW,298,4.0,4.0,91,0.00,,---,0.00,VWS V14.01,2013-01-30 06:45:00,
2013-01-30 01:48:00,50.7,48.2,29.93,WNW,298,3.0,3.0,91,0.00,,---,0.00,VWS V14.01,2013-01-30 06:48:00,
2013-01-30 01:50:00,50.7,48.2,29.92,WNW,298,4.0,5.0,91,0.00,,---,0.00,VWS V14.01,2013-01-30 06:50:00,
2013-01-30 01:53:00,50.7,48.2,29.92,WNW,298,4.0,5.0,91,0.00,,---,0.00,VWS V14.01,2013-01-30 06:53:00,
2013-01-30 01:55:00,50.8,48.3,29.92,WNW,298,3.0,5.0,91,0.00,,---,0.00,VWS V14.01,2013-01-30 06:55:00,
2013-01-30 01:57:00,50.7,48.2,29.92,WNW,298,3.0,5.0,91,0.00,,---,0.00,VWS V14.01,2013-01-30 06:57:00,
2013-01-30 02:00:00,51.0,48.5,29.92,WNW,298,0.0,3.0,91,0.00,,---,0.00,VWS V14.01,2013-01-30 07:00:00,
2013-01-30 02:02:00,51.0,48.5,29.92,WNW,298,1.0,3.0,91,0.00,,---,0.00,VWS V14.01,2013-01-30 07:02:00,
2013-01-30 02:05:00,50.8,48.0,29.92,WNW,298,2.0,3.0,90,0.00,,---,0.00,VWS V14.01,2013-01-30 07:05:00,
2013-01-30 02:07:00,50.8,48.0,29.92,WNW,298,0.0,0.0,90,0.00,,---,0.00,VWS V14.01,2013-01-30 07:07:00,
2013-01-30 02:10:00,50.7,47.9,29.92,WNW,298,1.0,3.0,90,0.00,,---,0.00,VWS V14.01,2013-01-30 07:10:00,
2013-01-30 02:12:00,50.7,47.9,29.92,WNW,298,2.0,3.0,90,0.00,,---,0.00,VWS V14.01,2013-01-30 07:12:00,
2013-01-30 02:15:00,50.7,48.2,29.90,WNW,298,0.0,1.0,91,0.00,,---,0.00,VWS V14.01,2013-01-30 07:15:00,
2013-01-30 02:17:00,50.7,48.2,29.92,WNW,298,0.0,1.0,91,0.00,,---,0.00,VWS V14.01,2013-01-30 07:17:00,
2013-01-30 02:20:00,50.7,48.2,29.90,WNW,298,0.0,1.0,91,0.00,,---,0.00,VWS V14.01,2013-01-30 07:20:00,
2013-01-30 02:22:00,50.7,48.2,29.90,WNW,298,0.0,0.0,91,0.00,,---,0.00,VWS V14.01,2013-01-30 07:22:00,
2013-01-30 02:25:00,50.7,48.2,29.90,WNW,298,0.0,0.0,91,0.00,,---,0.00,VWS V14.01,2013-01-30 07:25:00,
2013-01-30 02:27:00,50.7,48.2,29.90,WNW,298,0.0,0.0,91,0.00,,---,0.00,VWS V14.01,2013-01-30 07:27:00,
2013-01-30 02:30:00,50.7,48.5,29.90,WNW,298,0.0,0.0,92,0.00,,---,0.00,VWS V14.01,2013-01-30 07:30:00,
2013-01-30 02:32:00,50.7,48.2,29.90,WNW,298,0.0,0.0,91,0.00,,---,0.00,VWS V14.01,2013-01-30 07:32:00,
2013-01-30 02:35:00,50.5,48.0,29.90,WNW,298,3.0,3.0,91,0.00,,---,0.00,VWS V14.01,2013-01-30 07:35:00,
2013-01-30 02:37:00,50.7,48.5,29.90,WNW,298,1.0,2.0,92,0.00,,---,0.00,VWS V14.01,2013-01-30 07:37:00,
2013-01-30 02:40:00,50.7,48.5,29.90,WNW,298,1.0,4.0,92,0.00,,---,0.00,VWS V14.01,2013-01-30 07:40:00,
2013-01-30 02:42:00,50.5,48.0,29.90,WNW,298,3.0,4.0,91,0.00,,---,0.00,VWS V14.01,2013-01-30 07:42:00,
2013-01-30 02:45:00,50.8,48.6,29.89,WNW,298,0.0,4.0,92,0.00,,---,0.00,VWS V14.01,2013-01-30 07:45:00,
2013-01-30 02:47:00,50.7,48.5,29.90,WNW,298,2.0,4.0,92,0.00,,---,0.00,VWS V14.01,2013-01-30 07:47:00,
2013-01-30 02:50:00,50.8,48.6,29.89,WNW,298,0.0,1.0,92,0.00,,---,0.00,VWS V14.01,2013-01-30 07:50:00,
2013-01-30 02:52:00,51.0,48.8,29.89,WNW,298,0.0,1.0,92,0.00,,---,0.00,VWS V14.01,2013-01-30 07:52:00,
2013-01-30 02:55:00,50.7,48.2,29.89,WNW,298,0.0,2.0,91,0.00,,---,0.00,VWS V14.01,2013-01-30 07:55:00,
2013-01-30 02:57:00,50.8,48.6,29.89,WNW,298,0.0,0.0,92,0.00,,---,0.00,VWS V14.01,2013-01-30 07:57:00,
2013-01-30 03:00:00,50.5,48.0,29.89,WNW,298,0.0,3.0,91,0.00,,---,0.00,VWS V14.01,2013-01-30 08:00:00,
2013-01-30 03:02:00,50.7,48.2,29.89,WNW,298,2.0,3.0,91,0.00,,---,0.00,VWS V14.01,2013-01-30 08:02:00,
2013-01-30 03:05:00,50.5,48.3,29.89,WNW,298,0.0,0.0,92,0.00,,---,0.00,VWS V14.01,2013-01-30 08:05:00,
2013-01-30 03:07:00,50.5,48.3,29.89,WNW,298,0.0,0.0,92,0.00,,---,0.00,VWS V14.01,2013-01-30 08:07:00,
2013-01-30 03:10:00,50.7,48.5,29.89,WNW,298,1.0,1.0,92,0.00,,---,0.00,VWS V14.01,2013-01-30 08:10:00,
2013-01-30 03:12:00,50.7,48.5,29.89,WNW,298,0.0,0.0,92,0.00,,---,0.00,VWS V14.01,2013-01-30 08:12:00,
2013-01-30 03:15:00,50.7,48.8,29.88,WNW,298,1.0,2.0,93,0.00,,---,0.00,VWS V14.01,2013-01-30 08:15:00,
2013-01-30 03:17:00,50.7,48.8,29.89,WNW,298,2.0,2.0,93,0.00,,---,0.00,VWS V14.01,2013-01-30 08:17:00,
2013-01-30 03:20:00,50.8,48.8,29.88,WNW,298,1.0,2.0,93,0.00,,---,0.00,VWS V14.01,2013-01-30 08:20:00,
2013-01-30 03:22:00,50.7,48.8,29.88,WNW,298,1.0,1.0,93,0.00,,---,0.00,VWS V14.01,2013-01-30 08:22:00,
2013-01-30 03:25:00,51.0,49.0,29.88,WNW,298,1.0,3.0,93,0.00,,---,0.00,VWS V14.01,2013-01-30 08:25:00,
2013-01-30 03:27:00,50.8,48.8,29.88,WNW,298,0.0,3.0,93,0.00,,---,0.00,VWS V14.01,2013-01-30 08:27:00,
2013-01-30 03:30:00,51.0,49.0,29.88,WNW,298,0.0,1.0,93,0.00,,---,0.00,VWS V14.01,2013-01-30 08:30:00,
2013-01-30 03:32:00,51.0,49.0,29.88,WNW,298,0.0,1.0,93,0.00,,---,0.00,VWS V14.01,2013-01-30 08:32:00,
2013-01-30 03:35:00,50.8,48.8,29.88,WNW,297,0.0,3.0,93,0.00,,---,0.00,VWS V14.01,2013-01-30 08:35:00,
2013-01-30 03:37:00,50.8,48.8,29.88,WNW,297,0.0,3.0,93,0.00,,---,0.00,VWS V14.01,2013-01-30 08:37:00,
2013-01-30 03:40:00,50.8,48.8,29.88,WNW,297,0.0,0.0,93,0.00,,---,0.00,VWS V14.01,2013-01-30 08:40:00,
2013-01-30 03:42:00,50.8,48.8,29.88,WNW,297,0.0,0.0,93,0.00,,---,0.00,VWS V14.01,2013-01-30 08:42:00,
2013-01-30 03:45:00,50.8,49.1,29.88,WNW,297,0.0,0.0,94,0.00,,---,0.00,VWS V14.01,2013-01-30 08:45:00,
2013-01-30 03:47:00,50.8,48.8,29.88,WNW,297,0.0,0.0,93,0.00,,---,0.00,VWS V14.01,2013-01-30 08:47:00,
2013-01-30 03:50:00,51.3,49.6,29.88,WNW,297,0.0,2.0,94,0.00,,---,0.00,VWS V14.01,2013-01-30 08:50:00,
2013-01-30 03:52:00,51.0,49.3,29.88,WNW,297,0.0,0.0,94,0.00,,---,0.00,VWS V14.01,2013-01-30 08:52:00,
2013-01-30 03:55:00,51.6,49.9,29.88,WNW,297,0.0,2.0,94,0.00,,---,0.00,VWS V14.01,2013-01-30 08:55:00,
2013-01-30 03:57:00,51.4,49.7,29.88,WNW,297,1.0,2.0,94,0.00,,---,0.00,VWS V14.01,2013-01-30 08:57:00,
2013-01-30 04:00:00,51.7,50.0,29.86,WNW,297,0.0,1.0,94,0.00,,---,0.00,VWS V14.01,2013-01-30 09:00:00,
2013-01-30 04:02:00,51.7,50.0,29.88,WNW,297,0.0,1.0,94,0.00,,---,0.00,VWS V14.01,2013-01-30 09:02:00,
2013-01-30 04:05:00,51.9,50.2,29.86,WNW,297,0.0,0.0,94,0.00,,---,0.00,VWS V14.01,2013-01-30 09:05:00,
2013-01-30 04:07:00,51.7,50.0,29.86,WNW,297,0.0,0.0,94,0.00,,---,0.00,VWS V14.01,2013-01-30 09:07:00,
2013-01-30 04:10:00,51.9,50.2,29.86,WNW,297,0.0,0.0,94,0.00,,---,0.00,VWS V14.01,2013-01-30 09:10:00,
2013-01-30 04:12:00,51.9,50.2,29.86,WNW,297,0.0,0.0,94,0.00,,---,0.00,VWS V14.01,2013-01-30 09:12:00,
2013-01-30 04:15:00,52.0,50.3,29.86,WNW,297,0.0,0.0,94,0.00,,---,0.00,VWS V14.01,2013-01-30 09:15:00,
2013-01-30 04:17:00,52.0,50.3,29.86,WNW,297,0.0,0.0,94,0.00,,---,0.00,VWS V14.01,2013-01-30 09:17:00,
2013-01-30 04:20:00,52.2,50.5,29.86,WNW,297,0.0,0.0,94,0.00,,---,0.00,VWS V14.01,2013-01-30 09:20:00,
2013-01-30 04:22:00,52.2,50.5,29.86,WNW,297,0.0,0.0,94,0.00,,---,0.00,VWS V14.01,2013-01-30 09:22:00,
2013-01-30 04:25:00,52.3,50.6,29.86,WNW,297,0.0,2.0,94,0.00,,---,0.00,VWS V14.01,2013-01-30 09:25:00,
2013-01-30 04:27:00,52.3,50.6,29.86,WNW,297,0.0,0.0,94,0.00,,---,0.00,VWS V14.01,2013-01-30 09:27:00,
2013-01-30 04:30:00,52.3,50.3,29.85,WNW,297,0.0,3.0,93,0.00,,---,0.00,VWS V14.01,2013-01-30 09:30:00,
2013-01-30 04:32:00,52.4,50.4,29.86,WNW,297,2.0,2.0,93,0.00,,---,0.00,VWS V14.01,2013-01-30 09:32:00,
2013-01-30 04:35:00,52.4,50.4,29.85,WNW,297,1.0,1.0,93,0.00,,---,0.00,VWS V14.01,2013-01-30 09:35:00,
2013-01-30 04:37:00,52.3,50.3,29.85,WNW,297,0.0,0.0,93,0.00,,---,0.00,VWS V14.01,2013-01-30 09:37:00,
2013-01-30 04:40:00,52.4,50.4,29.85,WNW,297,4.0,4.0,93,0.00,,---,0.00,VWS V14.01,2013-01-30 09:40:00,
2013-01-30 04:42:00,52.4,50.4,29.85,WNW,297,0.0,3.0,93,0.00,,---,0.00,VWS V14.01,2013-01-30 09:42:00,
2013-01-30 04:45:00,52.4,50.4,29.85,WNW,298,1.0,4.0,93,0.00,,---,0.00,VWS V14.01,2013-01-30 09:45:00,
2013-01-30 04:47:00,52.3,50.0,29.85,WNW,298,1.0,4.0,92,0.00,,---,0.00,VWS V14.01,2013-01-30 09:47:00,
2013-01-30 04:50:00,52.7,50.7,29.85,WNW,298,1.0,1.0,93,0.00,,---,0.00,VWS V14.01,2013-01-30 09:50:00,
2013-01-30 04:52:00,52.7,51.0,29.85,WNW,298,0.0,1.0,94,0.00,,---,0.00,VWS V14.01,2013-01-30 09:52:00,
2013-01-30 04:55:00,53.2,51.2,29.85,WSW,250,0.0,2.0,93,0.00,,---,0.00,VWS V14.01,2013-01-30 09:55:00,
2013-01-30 04:57:00,53.0,51.3,29.85,WNW,298,1.0,2.0,94,0.00,,---,0.00,VWS V14.01,2013-01-30 09:57:00,
2013-01-30 05:00:00,53.0,51.0,29.83,WSW,250,0.0,1.0,93,0.00,,---,0.00,VWS V14.01,2013-01-30 10:00:00,
2013-01-30 05:02:00,53.2,51.2,29.85,WSW,250,0.0,1.0,93,0.00,,---,0.00,VWS V14.01,2013-01-30 10:02:00,
2013-01-30 05:05:00,52.9,50.6,29.83,WSW,250,0.0,2.0,92,0.00,,---,0.00,VWS V14.01,2013-01-30 10:05:00,
2013-01-30 05:07:00,53.0,51.0,29.83,WSW,250,0.0,2.0,93,0.00,,---,0.00,VWS V14.01,2013-01-30 10:07:00,
2013-01-30 05:10:00,52.9,50.9,29.83,WSW,250,0.0,0.0,93,0.00,,---,0.00,VWS V14.01,2013-01-30 10:10:00,
2013-01-30 05:12:00,52.7,50.5,29.83,WSW,250,0.0,0.0,92,0.00,,---,0.00,VWS V14.01,2013-01-30 10:12:00,
2013-01-30 05:15:00,53.2,51.5,29.83,WSW,246,4.0,5.0,94,0.00,,---,0.00,VWS V14.01,2013-01-30 10:15:00,
2013-01-30 05:17:00,52.9,50.9,29.83,WSW,250,0.0,2.0,93,0.00,,---,0.00,VWS V14.01,2013-01-30 10:17:00,
2013-01-30 05:20:00,53.6,51.9,29.83,WSW,248,1.0,4.0,94,0.00,,---,0.00,VWS V14.01,2013-01-30 10:20:00,
2013-01-30 05:22:00,53.3,51.6,29.83,WSW,247,4.0,4.0,94,0.00,,---,0.00,VWS V14.01,2013-01-30 10:22:00,
2013-01-30 05:25:00,53.9,52.5,29.83,SW,214,1.0,4.0,95,0.00,,---,0.00,VWS V14.01,2013-01-30 10:25:00,
2013-01-30 05:27:00,53.8,52.4,29.83,WSW,240,2.0,4.0,95,0.00,,---,0.00,VWS V14.01,2013-01-30 10:27:00,
2013-01-30 05:30:00,53.6,51.6,29.82,SW,214,0.0,2.0,93,0.00,,---,0.00,VWS V14.01,2013-01-30 10:30:00,
2013-01-30 05:32:00,53.9,52.2,29.83,SW,214,0.0,2.0,94,0.00,,---,0.00,VWS V14.01,2013-01-30 10:32:00,
2013-01-30 05:35:00,53.6,51.9,29.82,South,188,0.0,4.0,94,0.00,,---,0.00,VWS V14.01,2013-01-30 10:35:00,
2013-01-30 05:37:00,53.6,51.6,29.82,SW,214,0.0,1.0,93,0.00,,---,0.00,VWS V14.01,2013-01-30 10:37:00,
2013-01-30 05:40:00,53.8,52.1,29.82,SSW,194,2.0,5.0,94,0.00,,---,0.00,VWS V14.01,2013-01-30 10:40:00,
2013-01-30 05:42:00,53.8,52.1,29.82,South,183,0.0,5.0,94,0.00,,---,0.00,VWS V14.01,2013-01-30 10:42:00,
2013-01-30 05:45:00,54.1,52.7,29.82,SSW,200,11.0,12.0,95,0.00,,---,0.00,VWS V14.01,2013-01-30 10:45:00,
2013-01-30 05:47:00,53.8,52.1,29.82,SSW,200,6.0,6.0,94,0.00,,---,0.00,VWS V14.01,2013-01-30 10:47:00,
2013-01-30 05:50:00,55.1,53.7,29.82,South,187,7.0,11.0,95,0.00,,---,0.00,VWS V14.01,2013-01-30 10:50:00,
2013-01-30 05:52:00,54.5,53.1,29.82,SSW,200,4.0,11.0,95,0.00,,---,0.00,VWS V14.01,2013-01-30 10:52:00,
2013-01-30 05:55:00,55.8,54.4,29.82,SSW,192,8.0,12.0,95,0.00,,---,0.00,VWS V14.01,2013-01-30 10:55:00,
2013-01-30 05:57:00,55.4,54.0,29.82,SSW,212,6.0,9.0,95,0.00,,---,0.00,VWS V14.01,2013-01-30 10:57:00,
2013-01-30 06:00:00,56.4,54.7,29.82,South,189,7.0,12.0,94,0.00,,---,0.00,VWS V14.01,2013-01-30 11:00:00,
2013-01-30 06:02:00,56.1,54.7,29.82,South,181,9.0,12.0,95,0.00,,---,0.00,VWS V14.01,2013-01-30 11:02:00,
2013-01-30 06:05:00,56.7,55.0,29.82,South,191,11.0,11.0,94,0.00,,---,0.00,VWS V14.01,2013-01-30 11:05:00,
2013-01-30 06:07:00,56.6,54.9,29.82,SSW,202,9.0,11.0,94,0.00,,---,0.00,VWS V14.01,2013-01-30 11:07:00,
2013-01-30 06:10:00,57.2,55.2,29.82,South,190,9.0,12.0,93,0.00,,---,0.00,VWS V14.01,2013-01-30 11:10:00,
2013-01-30 06:12:00,57.1,55.1,29.82,SSW,199,10.0,11.0,93,0.00,,---,0.00,VWS V14.01,2013-01-30 11:12:00,
2013-01-30 06:15:00,57.4,55.4,29.83,SSW,194,8.0,15.0,93,0.00,,---,0.00,VWS V14.01,2013-01-30 11:15:00,
2013-01-30 06:17:00,57.2,55.2,29.82,SSW,194,5.0,10.0,93,0.00,,---,0.00,VWS V14.01,2013-01-30 11:17:00,
2013-01-30 06:20:00,57.7,55.4,29.83,SSW,202,3.0,11.0,92,0.00,,---,0.00,VWS V14.01,2013-01-30 11:20:00,
2013-01-30 06:22:00,57.4,55.4,29.83,SSW,209,10.0,11.0,93,0.00,,---,0.00,VWS V14.01,2013-01-30 11:22:00,
2013-01-30 06:25:00,57.8,55.5,29.83,SSW,192,6.0,10.0,92,0.00,,---,0.00,VWS V14.01,2013-01-30 11:25:00,
2013-01-30 06:27:00,57.7,55.4,29.83,SSW,201,4.0,7.0,92,0.00,,---,0.00,VWS V14.01,2013-01-30 11:27:00,
2013-01-30 06:30:00,57.7,55.4,29.83,SSW,192,5.0,8.0,92,0.00,,---,0.00,VWS V14.01,2013-01-30 11:30:00,
2013-01-30 06:32:00,57.8,55.5,29.83,SSW,192,3.0,6.0,92,0.00,,---,0.00,VWS V14.01,2013-01-30 11:32:00,
2013-01-30 06:35:00,57.8,55.5,29.83,South,182,4.0,11.0,92,0.00,,---,0.00,VWS V14.01,2013-01-30 11:35:00,
2013-01-30 06:37:00,57.8,55.5,29.83,South,177,7.0,10.0,92,0.00,,---,0.00,VWS V14.01,2013-01-30 11:37:00,
2013-01-30 06:40:00,58.0,55.7,29.83,SSW,196,11.0,13.0,92,0.00,,---,0.00,VWS V14.01,2013-01-30 11:40:00,
2013-01-30 06:42:00,57.8,55.5,29.83,South,185,6.0,10.0,92,0.00,,---,0.00,VWS V14.01,2013-01-30 11:42:00,
2013-01-30 06:45:00,58.0,55.7,29.82,SSW,193,6.0,11.0,92,0.00,,---,0.00,VWS V14.01,2013-01-30 11:45:00,
2013-01-30 06:47:00,58.0,55.7,29.83,SSW,211,5.0,11.0,92,0.00,,---,0.00,VWS V14.01,2013-01-30 11:47:00,
2013-01-30 06:50:00,58.1,55.8,29.82,SW,221,3.0,12.0,92,0.00,,---,0.00,VWS V14.01,2013-01-30 11:50:00,
2013-01-30 06:52:00,58.0,55.4,29.82,SW,223,9.0,11.0,91,0.00,,---,0.00,VWS V14.01,2013-01-30 11:52:00,
2013-01-30 06:55:00,58.1,55.5,29.82,SSW,198,4.0,9.0,91,0.00,,---,0.00,VWS V14.01,2013-01-30 11:55:00,
2013-01-30 06:57:00,58.1,55.5,29.82,SSW,213,6.0,7.0,91,0.00,,---,0.00,VWS V14.01,2013-01-30 11:57:00,
2013-01-30 07:00:00,58.1,55.8,29.82,SSW,207,10.0,11.0,92,0.00,,---,0.00,VWS V14.01,2013-01-30 12:00:00,
2013-01-30 07:02:00,58.1,55.8,29.82,SSW,198,5.0,7.0,92,0.00,,---,0.00,VWS V14.01,2013-01-30 12:02:00,
2013-01-30 07:05:00,58.1,55.8,29.82,SSW,192,7.0,10.0,92,0.00,,---,0.00,VWS V14.01,2013-01-30 12:05:00,
2013-01-30 07:07:00,58.1,55.8,29.82,SSW,201,5.0,10.0,92,0.00,,---,0.00,VWS V14.01,2013-01-30 12:07:00,
2013-01-30 07:10:00,58.1,55.8,29.82,South,179,4.0,11.0,92,0.00,,---,0.00,VWS V14.01,2013-01-30 12:10:00,
2013-01-30 07:12:00,58.3,56.0,29.82,South,180,5.0,11.0,92,0.00,,---,0.00,VWS V14.01,2013-01-30 12:12:00,
2013-01-30 07:15:00,58.0,55.7,29.81,South,181,5.0,6.0,92,0.00,,---,0.00,VWS V14.01,2013-01-30 12:15:00,
2013-01-30 07:17:00,58.1,55.8,29.82,South,180,3.0,4.0,92,0.00,,---,0.00,VWS V14.01,2013-01-30 12:17:00,
2013-01-30 07:20:00,58.1,55.8,29.81,SSW,198,5.0,8.0,92,0.00,,---,0.00,VWS V14.01,2013-01-30 12:20:00,
2013-01-30 07:22:00,58.0,55.7,29.81,SSW,198,4.0,5.0,92,0.00,,---,0.00,VWS V14.01,2013-01-30 12:22:00,
2013-01-30 07:25:00,58.1,56.1,29.81,SSW,198,3.0,7.0,93,0.00,,---,0.00,VWS V14.01,2013-01-30 12:25:00,
2013-01-30 07:27:00,58.1,55.8,29.81,SW,219,2.0,6.0,92,0.00,,---,0.00,VWS V14.01,2013-01-30 12:27:00,
2013-01-30 07:30:00,58.1,56.1,29.81,SSW,207,4.0,9.0,93,0.00,,---,0.00,VWS V14.01,2013-01-30 12:30:00,
2013-01-30 07:32:00,58.1,55.8,29.81,SSW,198,4.0,5.0,92,0.00,,---,0.00,VWS V14.01,2013-01-30 12:32:00,
2013-01-30 07:35:00,58.1,56.1,29.81,SSW,213,5.0,10.0,93,0.00,,---,0.00,VWS V14.01,2013-01-30 12:35:00,
2013-01-30 07:37:00,58.1,56.1,29.81,SSW,206,4.0,6.0,93,0.00,,---,0.00,VWS V14.01,2013-01-30 12:37:00,
2013-01-30 07:40:00,58.1,56.1,29.81,SSW,200,5.0,9.0,93,0.00,,---,0.00,VWS V14.01,2013-01-30 12:40:00,
2013-01-30 07:42:00,58.0,56.0,29.81,SSW,213,7.0,7.0,93,0.00,,---,0.00,VWS V14.01,2013-01-30 12:42:00,
2013-01-30 07:45:00,58.1,56.4,29.81,SSW,205,6.0,10.0,94,0.00,,---,0.00,VWS V14.01,2013-01-30 12:45:00,
2013-01-30 07:47:00,58.1,56.4,29.81,SSW,208,6.0,10.0,94,0.00,,---,0.00,VWS V14.01,2013-01-30 12:47:00,
2013-01-30 07:50:00,58.1,56.4,29.81,SSW,198,4.0,12.0,94,0.00,,---,0.00,VWS V14.01,2013-01-30 12:50:00,
2013-01-30 07:52:00,58.1,56.4,29.81,SSW,209,5.0,9.0,94,0.00,,---,0.00,VWS V14.01,2013-01-30 12:52:00,
2013-01-30 07:55:00,58.3,56.6,29.81,SW,215,6.0,11.0,94,0.00,,---,0.00,VWS V14.01,2013-01-30 12:55:00,
2013-01-30 07:57:00,58.3,56.6,29.81,SSW,211,10.0,11.0,94,0.00,,---,0.00,VWS V14.01,2013-01-30 12:57:00,
2013-01-30 08:00:00,58.3,56.6,29.80,South,181,7.0,9.0,94,0.00,,---,0.00,VWS V14.01,2013-01-30 13:00:00,
2013-01-30 08:02:00,58.3,56.6,29.81,SSW,212,5.0,7.0,94,0.00,,---,0.00,VWS V14.01,2013-01-30 13:02:00,
2013-01-30 08:05:00,58.4,56.7,29.80,SSW,206,6.0,9.0,94,0.00,,---,0.00,VWS V14.01,2013-01-30 13:05:00,
2013-01-30 08:07:00,58.4,56.7,29.80,SSW,213,6.0,9.0,94,0.00,,---,0.00,VWS V14.01,2013-01-30 13:07:00,
2013-01-30 08:10:00,58.4,56.7,29.80,SSW,194,5.0,9.0,94,0.00,,---,0.00,VWS V14.01,2013-01-30 13:10:00,
2013-01-30 08:12:00,58.4,56.7,29.80,South,188,5.0,9.0,94,0.00,,---,0.00,VWS V14.01,2013-01-30 13:12:00,
2013-01-30 08:15:00,58.4,56.7,29.79,SW,217,2.0,5.0,94,0.00,,---,0.00,VWS V14.01,2013-01-30 13:15:00,
2013-01-30 08:17:00,58.4,56.7,29.80,ESE,120,4.0,5.0,94,0.00,,---,0.00,VWS V14.01,2013-01-30 13:17:00,
2013-01-30 08:20:00,58.4,56.7,29.79,SW,217,4.0,4.0,94,0.00,,---,0.00,VWS V14.01,2013-01-30 13:20:00,
2013-01-30 08:22:00,58.4,56.7,29.79,SW,217,3.0,3.0,94,0.00,,---,0.00,VWS V14.01,2013-01-30 13:22:00,
2013-01-30 08:25:00,58.4,56.7,29.79,SW,217,0.0,5.0,94,0.00,,---,0.00,VWS V14.01,2013-01-30 13:25:00,
2013-01-30 08:27:00,58.4,56.7,29.79,SW,217,2.0,5.0,94,0.00,,---,0.00,VWS V14.01,2013-01-30 13:27:00,
2013-01-30 08:30:00,58.3,56.6,29.79,SW,217,0.0,2.0,94,0.01,,---,0.01,VWS V14.01,2013-01-30 13:30:00,
2013-01-30 08:32:00,58.3,56.6,29.79,SW,217,0.0,2.0,94,0.00,,---,0.00,VWS V14.01,2013-01-30 13:32:00,
2013-01-30 08:35:00,58.3,56.6,29.79,SW,223,2.0,5.0,94,0.01,,---,0.01,VWS V14.01,2013-01-30 13:35:00,
2013-01-30 08:37:00,58.3,56.6,29.79,SW,217,0.0,0.0,94,0.01,,---,0.01,VWS V14.01,2013-01-30 13:37:00,
2013-01-30 08:40:00,58.4,57.0,29.79,West,273,3.0,7.0,95,0.01,,---,0.01,VWS V14.01,2013-01-30 13:40:00,
2013-01-30 08:42:00,58.3,56.9,29.79,SW,225,3.0,7.0,95,0.01,,---,0.01,VWS V14.01,2013-01-30 13:42:00,
2013-01-30 08:45:00,58.4,57.0,29.79,WSW,252,0.0,6.0,95,0.01,,---,0.01,VWS V14.01,2013-01-30 13:45:00,
2013-01-30 08:47:00,58.4,57.0,29.79,West,277,3.0,5.0,95,0.01,,---,0.01,VWS V14.01,2013-01-30 13:47:00,
2013-01-30 08:50:00,58.6,57.2,29.79,SW,234,1.0,5.0,95,0.01,,---,0.01,VWS V14.01,2013-01-30 13:50:00,
2013-01-30 08:52:00,58.4,57.0,29.79,SW,234,2.0,5.0,95,0.01,,---,0.01,VWS V14.01,2013-01-30 13:52:00,
2013-01-30 08:55:00,58.6,57.2,29.79,SW,234,0.0,2.0,95,0.01,,---,0.01,VWS V14.01,2013-01-30 13:55:00,
2013-01-30 08:57:00,58.6,57.2,29.79,SW,234,0.0,2.0,95,0.01,,---,0.01,VWS V14.01,2013-01-30 13:57:00,
2013-01-30 09:00:00,58.6,57.2,29.79,SW,234,2.0,2.0,95,0.01,,---,0.01,VWS V14.01,2013-01-30 14:00:00,
2013-01-30 09:02:00,58.6,57.2,29.79,SW,234,2.0,2.0,95,0.01,,---,0.01,VWS V14.01,2013-01-30 14:02:00,
2013-01-30 09:05:00,58.6,57.2,29.79,SW,234,0.0,2.0,95,0.01,,---,0.01,VWS V14.01,2013-01-30 14:05:00,
2013-01-30 09:07:00,58.6,57.2,29.79,SW,234,1.0,2.0,95,0.01,,---,0.01,VWS V14.01,2013-01-30 14:07:00,
2013-01-30 09:10:00,58.6,57.2,29.79,SW,234,0.0,1.0,95,0.01,,---,0.01,VWS V14.01,2013-01-30 14:10:00,
2013-01-30 09:12:00,58.6,57.2,29.79,SW,234,0.0,0.0,95,0.01,,---,0.01,VWS V14.01,2013-01-30 14:12:00,
2013-01-30 09:15:00,58.6,57.5,29.77,SW,222,4.0,5.0,96,0.01,,---,0.01,VWS V14.01,2013-01-30 14:15:00,
2013-01-30 09:17:00,58.6,57.2,29.79,SW,234,1.0,4.0,95,0.01,,---,0.01,VWS V14.01,2013-01-30 14:17:00,
2013-01-30 09:20:00,58.6,57.5,29.77,SSW,199,3.0,10.0,96,0.01,,---,0.01,VWS V14.01,2013-01-30 14:20:00,
2013-01-30 09:22:00,58.6,57.5,29.77,South,178,5.0,7.0,96,0.01,,---,0.01,VWS V14.01,2013-01-30 14:22:00,
2013-01-30 09:25:00,58.6,57.5,29.77,SW,220,5.0,7.0,96,0.02,,---,0.02,VWS V14.01,2013-01-30 14:25:00,
2013-01-30 09:27:00,58.6,57.5,29.77,SSW,194,5.0,7.0,96,0.02,,---,0.02,VWS V14.01,2013-01-30 14:27:00,
2013-01-30 09:30:00,58.9,58.0,29.76,SW,229,6.0,13.0,97,0.02,,---,0.02,VWS V14.01,2013-01-30 14:30:00,
2013-01-30 09:32:00,58.7,57.6,29.77,SSW,197,5.0,6.0,96,0.02,,---,0.02,VWS V14.01,2013-01-30 14:32:00,
2013-01-30 09:35:00,59.0,58.2,29.76,SSW,198,7.0,10.0,97,0.01,,---,0.02,VWS V14.01,2013-01-30 14:35:00,
2013-01-30 09:37:00,59.0,58.2,29.76,SSW,213,5.0,10.0,97,0.01,,---,0.02,VWS V14.01,2013-01-30 14:37:00,
2013-01-30 09:40:00,59.3,58.5,29.76,SW,219,4.0,14.0,97,0.01,,---,0.02,VWS V14.01,2013-01-30 14:40:00,
2013-01-30 09:42:00,59.2,58.3,29.76,SW,217,4.0,9.0,97,0.01,,---,0.02,VWS V14.01,2013-01-30 14:42:00,
2013-01-30 09:45:00,59.5,58.7,29.75,SSW,198,11.0,14.0,97,0.01,,---,0.02,VWS V14.01,2013-01-30 14:45:00,
2013-01-30 09:47:00,59.3,58.5,29.76,SSW,213,7.0,8.0,97,0.01,,---,0.02,VWS V14.01,2013-01-30 14:47:00,
2013-01-30 09:50:00,59.6,58.8,29.75,SW,221,5.0,15.0,97,0.01,,---,0.02,VWS V14.01,2013-01-30 14:50:00,
2013-01-30 09:52:00,59.6,58.8,29.75,SW,220,6.0,11.0,97,0.01,,---,0.02,VWS V14.01,2013-01-30 14:52:00,
2013-01-30 09:55:00,59.8,59.0,29.75,WSW,242,8.0,14.0,97,0.01,,---,0.02,VWS V14.01,2013-01-30 14:55:00,
2013-01-30 09:57:00,59.8,59.0,29.75,SSW,202,9.0,10.0,97,0.01,,---,0.02,VWS V14.01,2013-01-30 14:57:00,
2013-01-30 10:00:00,60.1,59.2,29.75,SW,229,9.0,19.0,97,0.01,,---,0.02,VWS V14.01,2013-01-30 15:00:00,
2013-01-30 10:02:00,60.0,59.2,29.75,SW,221,12.0,17.0,97,0.01,,---,0.02,VWS V14.01,2013-01-30 15:02:00,
2013-01-30 10:05:00,60.3,59.5,29.75,WSW,247,14.0,20.0,97,0.02,,---,0.03,VWS V14.01,2013-01-30 15:05:00,
2013-01-30 10:07:00,60.1,59.2,29.75,WSW,240,10.0,17.0,97,0.01,,---,0.02,VWS V14.01,2013-01-30 15:07:00,
2013-01-30 10:10:00,60.4,59.5,29.75,SSW,206,11.0,18.0,97,0.02,,---,0.03,VWS V14.01,2013-01-30 15:10:00,
2013-01-30 10:12:00,60.3,59.5,29.75,South,191,8.0,14.0,97,0.02,,---,0.03,VWS V14.01,2013-01-30 15:12:00,
2013-01-30 10:15:00,60.6,59.5,29.75,WSW,238,9.0,17.0,96,0.02,,---,0.03,VWS V14.01,2013-01-30 15:15:00,
2013-01-30 10:16:00,60.4,59.3,29.75,South,178,10.0,13.0,96,0.02,,---,0.03,VWS V14.01,2013-01-30 15:16:00,
2013-01-30 10:20:00,60.6,59.5,29.75,SW,216,10.0,15.0,96,0.02,,---,0.03,VWS V14.01,2013-01-30 15:20:00,
2013-01-30 10:21:00,60.6,59.5,29.75,SSW,209,6.0,10.0,96,0.02,,---,0.03,VWS V14.01,2013-01-30 15:21:00,
2013-01-30 10:25:00,60.7,59.6,29.75,SSW,192,16.0,16.0,96,0.02,,---,0.03,VWS V14.01,2013-01-30 15:25:00,
2013-01-30 10:26:00,60.7,59.6,29.75,SSW,204,10.0,11.0,96,0.02,,---,0.03,VWS V14.01,2013-01-30 15:26:00,
2013-01-30 10:30:00,60.9,59.8,29.75,SSW,201,9.0,23.0,96,0.01,,---,0.03,VWS V14.01,2013-01-30 15:30:00,
2013-01-30 10:31:00,60.7,59.6,29.75,SW,226,11.0,23.0,96,0.01,,---,0.03,VWS V14.01,2013-01-30 15:31:00,
2013-01-30 10:35:00,60.9,59.8,29.75,SSW,212,14.0,22.0,96,0.01,,---,0.03,VWS V14.01,2013-01-30 15:35:00,
2013-01-30 10:36:00,60.9,59.8,29.75,SW,230,13.0,13.0,96,0.01,,---,0.03,VWS V14.01,2013-01-30 15:36:00,
2013-01-30 10:40:00,61.1,59.7,29.75,SSW,206,12.0,20.0,95,0.02,,---,0.04,VWS V14.01,2013-01-30 15:40:00,
2013-01-30 10:41:00,60.9,59.8,29.75,SW,232,13.0,16.0,96,0.01,,---,0.03,VWS V14.01,2013-01-30 15:41:00,
2013-01-30 10:45:00,61.1,59.7,29.74,SW,217,10.0,17.0,95,0.02,,---,0.04,VWS V14.01,2013-01-30 15:45:00,
2013-01-30 10:46:00,61.1,59.7,29.75,SW,221,7.0,17.0,95,0.02,,---,0.04,VWS V14.01,2013-01-30 15:46:00,
2013-01-30 10:50:00,61.2,59.8,29.74,SW,219,6.0,10.0,95,0.02,,---,0.04,VWS V14.01,2013-01-30 15:50:00,
2013-01-30 10:51:00,61.2,59.8,29.74,SW,219,6.0,10.0,95,0.02,,---,0.04,VWS V14.01,2013-01-30 15:51:00,
2013-01-30 10:55:00,61.2,59.8,29.74,SSW,210,9.0,12.0,95,0.02,,---,0.04,VWS V14.01,2013-01-30 15:55:00,
2013-01-30 10:56:00,61.2,59.8,29.74,WSW,239,6.0,9.0,95,0.02,,---,0.04,VWS V14.01,2013-01-30 15:56:00,
2013-01-30 11:00:00,61.2,59.8,29.73,WSW,243,0.0,11.0,95,0.02,,---,0.04,VWS V14.01,2013-01-30 16:00:00,
2013-01-30 11:01:00,61.2,59.8,29.74,WSW,237,10.0,11.0,95,0.02,,---,0.04,VWS V14.01,2013-01-30 16:01:00,
2013-01-30 11:05:00,61.2,59.8,29.73,WSW,257,4.0,7.0,95,0.02,,---,0.04,VWS V14.01,2013-01-30 16:05:00,
2013-01-30 11:06:00,61.2,59.8,29.73,WSW,244,4.0,6.0,95,0.02,,---,0.04,VWS V14.01,2013-01-30 16:06:00,
2013-01-30 11:10:00,61.2,59.8,29.73,WSW,244,6.0,14.0,95,0.01,,---,0.04,VWS V14.01,2013-01-30 16:10:00,
2013-01-30 11:11:00,61.2,59.8,29.73,SW,236,13.0,13.0,95,0.01,,---,0.04,VWS V14.01,2013-01-30 16:11:00,
2013-01-30 11:15:00,61.4,60.0,29.71,SW,221,6.0,11.0,95,0.01,,---,0.04,VWS V14.01,2013-01-30 16:15:00,
2013-01-30 11:16:00,61.4,60.0,29.73,SW,235,6.0,11.0,95,0.01,,---,0.04,VWS V14.01,2013-01-30 16:16:00,
2013-01-30 11:20:00,61.4,60.0,29.71,SW,230,20.0,20.0,95,0.01,,---,0.04,VWS V14.01,2013-01-30 16:20:00,
2013-01-30 11:21:00,61.4,60.0,29.71,WSW,248,13.0,13.0,95,0.01,,---,0.04,VWS V14.01,2013-01-30 16:21:00,
2013-01-30 11:25:00,61.7,60.0,29.71,WSW,241,14.0,20.0,94,0.01,,---,0.04,VWS V14.01,2013-01-30 16:25:00,
2013-01-30 11:26:00,61.5,60.1,29.71,WNW,292,7.0,20.0,95,0.01,,---,0.04,VWS V14.01,2013-01-30 16:26:00,
2013-01-30 11:30:00,61.8,60.1,29.70,WSW,254,10.0,17.0,94,0.01,,---,0.04,VWS V14.01,2013-01-30 16:30:00,
2013-01-30 11:31:00,61.7,60.0,29.71,WSW,249,16.0,17.0,94,0.01,,---,0.04,VWS V14.01,2013-01-30 16:31:00,
2013-01-30 11:35:00,62.0,60.0,29.70,SW,225,13.0,16.0,93,0.01,,---,0.04,VWS V14.01,2013-01-30 16:35:00,
2013-01-30 11:36:00,61.8,59.8,29.70,WSW,246,7.0,16.0,93,0.01,,---,0.04,VWS V14.01,2013-01-30 16:36:00,
2013-01-30 11:40:00,62.2,60.2,29.70,WSW,258,10.0,17.0,93,0.01,,---,0.04,VWS V14.01,2013-01-30 16:40:00,
2013-01-30 11:41:00,62.0,60.0,29.70,SW,233,11.0,13.0,93,0.01,,---,0.04,VWS V14.01,2013-01-30 16:41:00,
2013-01-30 11:45:00,62.5,60.2,29.69,WSW,248,12.0,16.0,92,0.00,,---,0.04,VWS V14.01,2013-01-30 16:45:00,
2013-01-30 11:46:00,62.3,60.0,29.70,WSW,242,8.0,16.0,92,0.00,,---,0.04,VWS V14.01,2013-01-30 16:46:00,
2013-01-30 11:50:00,62.6,59.9,29.69,WSW,249,8.0,18.0,91,0.00,,---,0.04,VWS V14.01,2013-01-30 16:50:00,
2013-01-30 11:51:00,62.5,60.2,29.69,SW,235,12.0,14.0,92,0.00,,---,0.04,VWS V14.01,2013-01-30 16:51:00,
2013-01-30 11:55:00,62.8,60.1,29.69,West,275,3.0,13.0,91,0.00,,---,0.04,VWS V14.01,2013-01-30 16:55:00,
2013-01-30 11:56:00,62.6,59.9,29.69,WSW,253,6.0,12.0,91,0.00,,---,0.04,VWS V14.01,2013-01-30 16:56:00,
2013-01-30 12:00:00,62.8,60.1,29.68,WSW,248,5.0,13.0,91,0.00,,---,0.04,VWS V14.01,2013-01-30 17:00:00,
2013-01-30 12:01:00,62.8,60.1,29.69,SW,223,7.0,13.0,91,0.00,,---,0.04,VWS V14.01,2013-01-30 17:01:00,
2013-01-30 12:05:00,63.0,60.3,29.68,WSW,252,6.0,11.0,91,0.00,,---,0.04,VWS V14.01,2013-01-30 17:05:00,
2013-01-30 12:06:00,63.0,60.3,29.68,WSW,245,8.0,10.0,91,0.00,,---,0.04,VWS V14.01,2013-01-30 17:06:00,
2013-01-30 12:10:00,63.0,60.3,29.68,SW,236,6.0,14.0,91,0.00,,---,0.04,VWS V14.01,2013-01-30 17:10:00,
2013-01-30 12:11:00,63.0,60.3,29.68,WSW,252,6.0,10.0,91,0.00,,---,0.04,VWS V14.01,2013-01-30 17:11:00,
2013-01-30 12:15:00,63.1,60.4,29.66,SW,225,10.0,19.0,91,0.00,,---,0.04,VWS V14.01,2013-01-30 17:15:00,
2013-01-30 12:16:00,63.0,60.3,29.68,WSW,241,8.0,10.0,91,0.00,,---,0.04,VWS V14.01,2013-01-30 17:16:00,
2013-01-30 12:20:00,63.1,60.4,29.66,SW,215,12.0,17.0,91,0.00,,---,0.04,VWS V14.01,2013-01-30 17:20:00,
2013-01-30 12:21:00,63.1,60.4,29.66,WSW,254,7.0,13.0,91,0.00,,---,0.04,VWS V14.01,2013-01-30 17:21:00,
2013-01-30 12:25:00,63.1,60.4,29.66,SW,218,12.0,19.0,91,0.01,,---,0.05,VWS V14.01,2013-01-30 17:25:00,
2013-01-30 12:26:00,63.1,60.4,29.66,WSW,240,15.0,15.0,91,0.01,,---,0.05,VWS V14.01,2013-01-30 17:26:00,
2013-01-30 12:30:00,63.3,60.9,29.65,SW,220,8.0,19.0,92,0.02,,---,0.06,VWS V14.01,2013-01-30 17:30:00,
2013-01-30 12:31:00,63.3,60.9,29.66,WSW,250,10.0,19.0,92,0.01,,---,0.05,VWS V14.01,2013-01-30 17:31:00,
2013-01-30 12:35:00,63.3,60.9,29.65,SW,214,18.0,18.0,92,0.02,,---,0.06,VWS V14.01,2013-01-30 17:35:00,
2013-01-30 12:36:00,63.3,60.9,29.65,South,183,14.0,14.0,92,0.02,,---,0.06,VWS V14.01,2013-01-30 17:36:00,
2013-01-30 12:40:00,63.3,60.9,29.65,SSW,201,6.0,23.0,92,0.02,,---,0.06,VWS V14.01,2013-01-30 17:40:00,
2013-01-30 12:41:00,63.3,60.9,29.65,SSW,213,7.0,18.0,92,0.02,,---,0.06,VWS V14.01,2013-01-30 17:41:00,
2013-01-30 12:45:00,63.3,60.9,29.64,SSW,213,7.0,17.0,92,0.02,,---,0.06,VWS V14.01,2013-01-30 17:45:00,
2013-01-30 12:46:00,63.3,60.9,29.65,SW,228,14.0,16.0,92,0.02,,---,0.06,VWS V14.01,2013-01-30 17:46:00,
2013-01-30 12:50:00,63.3,60.9,29.64,SW,215,10.0,20.0,92,0.03,,---,0.07,VWS V14.01,2013-01-30 17:50:00,
2013-01-30 12:51:00,63.3,60.9,29.64,SSW,198,14.0,15.0,92,0.02,,---,0.06,VWS V14.01,2013-01-30 17:51:00,
2013-01-30 12:55:00,63.4,61.0,29.64,SW,233,11.0,21.0,92,0.03,,---,0.07,VWS V14.01,2013-01-30 17:55:00,
2013-01-30 12:56:00,63.3,60.9,29.64,WSW,242,16.0,21.0,92,0.03,,---,0.07,VWS V14.01,2013-01-30 17:56:00,
2013-01-30 13:00:00,63.4,61.0,29.63,SW,236,6.0,14.0,92,0.04,,---,0.08,VWS V14.01,2013-01-30 18:00:00,
2013-01-30 13:01:00,63.4,61.0,29.64,SW,228,8.0,11.0,92,0.03,,---,0.07,VWS V14.01,2013-01-30 18:01:00,
2013-01-30 13:05:00,63.4,61.0,29.63,WSW,248,11.0,17.0,92,0.04,,---,0.08,VWS V14.01,2013-01-30 18:05:00,
2013-01-30 13:06:00,63.4,61.0,29.63,West,263,9.0,13.0,92,0.04,,---,0.08,VWS V14.01,2013-01-30 18:06:00,
2013-01-30 13:10:00,63.4,61.0,29.63,SW,234,9.0,20.0,92,0.04,,---,0.08,VWS V14.01,2013-01-30 18:10:00,
2013-01-30 13:11:00,63.4,61.0,29.63,South,186,12.0,15.0,92,0.04,,---,0.08,VWS V14.01,2013-01-30 18:11:00,
2013-01-30 13:15:00,63.4,61.0,29.62,West,273,3.0,15.0,92,0.04,,---,0.08,VWS V14.01,2013-01-30 18:15:00,
2013-01-30 13:16:00,63.4,61.0,29.63,SSW,212,7.0,15.0,92,0.04,,---,0.08,VWS V14.01,2013-01-30 18:16:00,
2013-01-30 13:20:00,63.4,61.0,29.62,NW,310,10.0,18.0,92,0.04,,---,0.08,VWS V14.01,2013-01-30 18:20:00,
2013-01-30 13:21:00,63.4,61.0,29.62,SW,232,4.0,6.0,92,0.04,,---,0.08,VWS V14.01,2013-01-30 18:21:00,
2013-01-30 13:25:00,63.4,61.0,29.62,WSW,253,6.0,15.0,92,0.06,,---,0.10,VWS V14.01,2013-01-30 18:25:00,
2013-01-30 13:26:00,63.4,61.0,29.62,SW,231,10.0,15.0,92,0.05,,---,0.09,VWS V14.01,2013-01-30 18:26:00,
2013-01-30 13:30:00,63.4,61.0,29.62,SSW,206,9.0,16.0,92,0.07,,---,0.12,VWS V14.01,2013-01-30 18:30:00,
2013-01-30 13:31:00,63.4,61.0,29.62,SSW,211,14.0,15.0,92,0.06,,---,0.11,VWS V14.01,2013-01-30 18:31:00,
2013-01-30 13:35:00,63.4,61.3,29.62,SSW,201,13.0,18.0,93,0.07,,---,0.13,VWS V14.01,2013-01-30 18:35:00,
2013-01-30 13:36:00,63.4,61.0,29.62,SW,235,12.0,12.0,92,0.06,,---,0.12,VWS V14.01,2013-01-30 18:36:00,
2013-01-30 13:40:00,63.3,61.2,29.62,WSW,246,4.0,14.0,93,0.08,,---,0.14,VWS V14.01,2013-01-30 18:40:00,
2013-01-30 13:41:00,63.3,61.2,29.62,WSW,243,9.0,14.0,93,0.07,,---,0.13,VWS V14.01,2013-01-30 18:41:00,
2013-01-30 13:45:00,63.3,61.2,29.61,WSW,243,2.0,13.0,93,0.09,,---,0.15,VWS V14.01,2013-01-30 18:45:00,
2013-01-30 13:46:00,63.3,61.2,29.62,WSW,254,5.0,8.0,93,0.08,,---,0.14,VWS V14.01,2013-01-30 18:46:00,
2013-01-30 13:50:00,63.1,61.0,29.61,SSW,198,12.0,14.0,93,0.10,,---,0.16,VWS V14.01,2013-01-30 18:50:00,
2013-01-30 13:51:00,63.3,61.2,29.61,WSW,245,6.0,6.0,93,0.09,,---,0.15,VWS V14.01,2013-01-30 18:51:00,
2013-01-30 13:55:00,63.1,61.3,29.61,SSW,196,10.0,14.0,94,0.09,,---,0.16,VWS V14.01,2013-01-30 18:55:00,
2013-01-30 13:56:00,63.1,61.0,29.61,WSW,246,4.0,13.0,93,0.09,,---,0.16,VWS V14.01,2013-01-30 18:56:00,
2013-01-30 14:00:00,63.1,61.3,29.61,West,259,5.0,13.0,94,0.12,,---,0.19,VWS V14.01,2013-01-30 19:00:00,
2013-01-30 14:01:00,63.1,61.3,29.61,SW,221,5.0,13.0,94,0.10,,---,0.17,VWS V14.01,2013-01-30 19:01:00,
2013-01-30 14:05:00,63.1,61.3,29.61,South,188,10.0,14.0,94,0.15,,---,0.23,VWS V14.01,2013-01-30 19:05:00,
2013-01-30 14:06:00,63.1,61.3,29.61,WSW,238,11.0,11.0,94,0.12,,---,0.20,VWS V14.01,2013-01-30 19:06:00,
2013-01-30 14:10:00,63.1,61.3,29.61,WSW,244,10.0,17.0,94,0.18,,---,0.26,VWS V14.01,2013-01-30 19:10:00,
2013-01-30 14:11:00,63.1,61.3,29.61,South,191,9.0,14.0,94,0.17,,---,0.25,VWS V14.01,2013-01-30 19:11:00,
2013-01-30 14:15:00,63.1,61.3,29.60,WSW,248,7.0,16.0,94,0.20,,---,0.28,VWS V14.01,2013-01-30 19:15:00,
2013-01-30 14:16:00,63.1,61.3,29.61,SW,216,3.0,10.0,94,0.18,,---,0.26,VWS V14.01,2013-01-30 19:16:00,
2013-01-30 14:20:00,63.1,61.7,29.60,SW,236,8.0,17.0,95,0.21,,---,0.29,VWS V14.01,2013-01-30 19:20:00,
2013-01-30 14:21:00,63.1,61.7,29.60,SW,218,9.0,13.0,95,0.20,,---,0.28,VWS V14.01,2013-01-30 19:21:00,
2013-01-30 14:25:00,63.3,61.8,29.60,West,269,10.0,18.0,95,0.22,,---,0.30,VWS V14.01,2013-01-30 19:25:00,
2013-01-30 14:26:00,63.1,61.7,29.60,SW,230,5.0,8.0,95,0.21,,---,0.29,VWS V14.01,2013-01-30 19:26:00,
2013-01-30 14:30:00,63.3,61.5,29.60,SSW,211,5.0,17.0,94,0.20,,---,0.30,VWS V14.01,2013-01-30 19:30:00,
2013-01-30 14:31:00,63.3,61.5,29.60,South,190,8.0,17.0,94,0.20,,---,0.30,VWS V14.01,2013-01-30 19:31:00,
2013-01-30 14:35:00,63.3,61.5,29.60,SW,234,15.0,15.0,94,0.18,,---,0.30,VWS V14.01,2013-01-30 19:35:00,
2013-01-30 14:36:00,63.3,61.5,29.60,South,190,5.0,7.0,94,0.18,,---,0.30,VWS V14.01,2013-01-30 19:36:00,
2013-01-30 14:40:00,63.4,61.7,29.60,SW,220,7.0,17.0,94,0.17,,---,0.30,VWS V14.01,2013-01-30 19:40:00,
2013-01-30 14:41:00,63.3,61.5,29.60,SW,217,11.0,17.0,94,0.17,,---,0.30,VWS V14.01,2013-01-30 19:41:00,
2013-01-30 14:45:00,63.4,61.3,29.59,SSW,211,4.0,11.0,93,0.16,,---,0.30,VWS V14.01,2013-01-30 19:45:00,
2013-01-30 14:46:00,63.4,61.7,29.60,SW,214,8.0,11.0,94,0.16,,---,0.30,VWS V14.01,2013-01-30 19:46:00,
2013-01-30 14:50:00,63.6,61.5,29.59,SSW,200,10.0,13.0,93,0.15,,---,0.30,VWS V14.01,2013-01-30 19:50:00,
2013-01-30 14:51:00,63.4,61.3,29.59,SSW,212,4.0,5.0,93,0.15,,---,0.30,VWS V14.01,2013-01-30 19:51:00,
2013-01-30 14:55:00,63.6,61.5,29.59,WSW,238,4.0,14.0,93,0.15,,---,0.31,VWS V14.01,2013-01-30 19:55:00,
2013-01-30 14:56:00,63.6,61.5,29.59,SSW,201,10.0,14.0,93,0.14,,---,0.30,VWS V14.01,2013-01-30 19:56:00,
2013-01-30 15:00:00,63.6,61.5,29.58,SSW,210,3.0,6.0,93,0.17,,---,0.33,VWS V14.01,2013-01-30 20:00:00,
2013-01-30 15:01:00,63.6,61.5,29.59,SSW,206,5.0,6.0,93,0.16,,---,0.32,VWS V14.01,2013-01-30 20:01:00,
2013-01-30 15:05:00,63.6,61.5,29.58,SW,220,4.0,11.0,93,0.15,,---,0.34,VWS V14.01,2013-01-30 20:05:00,
2013-01-30 15:06:00,63.6,61.5,29.58,SSW,213,4.0,5.0,93,0.14,,---,0.33,VWS V14.01,2013-01-30 20:06:00,
2013-01-30 15:11:00,63.6,61.5,29.58,WSW,244,8.0,10.0,93,0.11,,---,0.34,VWS V14.01,2013-01-30 20:11:00,
2013-01-30 15:15:00,63.6,61.5,29.57,SW,233,6.0,7.0,93,0.10,,---,0.36,VWS V14.01,2013-01-30 20:15:00,
2013-01-30 15:16:00,63.6,61.5,29.58,SSW,195,2.0,3.0,93,0.09,,---,0.35,VWS V14.01,2013-01-30 20:16:00,
2013-01-30 15:20:00,63.6,61.5,29.57,SW,227,7.0,12.0,93,0.08,,---,0.36,VWS V14.01,2013-01-30 20:20:00,
2013-01-30 15:21:00,63.6,61.5,29.57,SW,218,6.0,9.0,93,0.08,,---,0.36,VWS V14.01,2013-01-30 20:21:00,
2013-01-30 15:25:00,63.6,61.5,29.57,SSW,204,8.0,10.0,93,0.08,,---,0.37,VWS V14.01,2013-01-30 20:25:00,
2013-01-30 15:26:00,63.6,61.5,29.57,SW,229,4.0,9.0,93,0.08,,---,0.37,VWS V14.01,2013-01-30 20:26:00,
2013-01-30 15:30:00,63.6,61.5,29.56,SW,214,9.0,12.0,93,0.07,,---,0.37,VWS V14.01,2013-01-30 20:30:00,
2013-01-30 15:31:00,63.6,61.5,29.57,SSW,211,6.0,8.0,93,0.07,,---,0.37,VWS V14.01,2013-01-30 20:31:00,
2013-01-30 15:35:00,63.8,61.4,29.56,SSW,196,12.0,19.0,92,0.07,,---,0.37,VWS V14.01,2013-01-30 20:35:00,
2013-01-30 15:36:00,63.6,61.5,29.56,SSW,205,7.0,11.0,93,0.07,,---,0.37,VWS V14.01,2013-01-30 20:36:00,
2013-01-30 15:40:00,63.9,61.5,29.56,SSW,209,17.0,20.0,92,0.07,,---,0.37,VWS V14.01,2013-01-30 20:40:00,
2013-01-30 15:41:00,63.8,61.4,29.56,SW,216,11.0,17.0,92,0.07,,---,0.37,VWS V14.01,2013-01-30 20:41:00,
2013-01-30 15:45:00,64.1,61.4,29.56,SSW,195,11.0,18.0,91,0.07,,---,0.37,VWS V14.01,2013-01-30 20:45:00,
2013-01-30 15:46:00,64.1,61.4,29.56,SSW,202,7.0,18.0,91,0.07,,---,0.37,VWS V14.01,2013-01-30 20:46:00,
2013-01-30 15:50:00,64.3,61.6,29.56,SSW,194,17.0,27.0,91,0.07,,---,0.37,VWS V14.01,2013-01-30 20:50:00,
2013-01-30 15:51:00,64.1,61.4,29.56,South,183,10.0,15.0,91,0.07,,---,0.37,VWS V14.01,2013-01-30 20:51:00,
2013-01-30 15:55:00,64.3,61.6,29.56,SSW,206,15.0,24.0,91,0.08,,---,0.38,VWS V14.01,2013-01-30 20:55:00,
2013-01-30 15:56:00,64.3,61.6,29.56,SSW,202,11.0,24.0,91,0.07,,---,0.37,VWS V14.01,2013-01-30 20:56:00,
2013-01-30 16:00:00,64.3,61.6,29.55,SSW,195,14.0,17.0,91,0.08,,---,0.39,VWS V14.01,2013-01-30 21:00:00,
2013-01-30 16:01:00,64.3,61.6,29.56,South,190,12.0,15.0,91,0.07,,---,0.38,VWS V14.01,2013-01-30 21:01:00,
2013-01-30 16:05:00,64.1,61.7,29.55,SSW,202,16.0,22.0,92,0.07,,---,0.40,VWS V14.01,2013-01-30 21:05:00,
2013-01-30 16:06:00,64.1,61.4,29.55,SW,221,15.0,22.0,91,0.06,,---,0.39,VWS V14.01,2013-01-30 21:06:00,
2013-01-30 16:10:00,63.9,61.5,29.55,SSW,196,17.0,20.0,92,0.06,,---,0.40,VWS V14.01,2013-01-30 21:10:00,
2013-01-30 16:11:00,64.1,61.7,29.55,SSW,207,17.0,17.0,92,0.06,,---,0.40,VWS V14.01,2013-01-30 21:11:00,
2013-01-30 16:15:00,63.9,61.5,29.54,SW,229,9.0,21.0,92,0.05,,---,0.40,VWS V14.01,2013-01-30 21:15:00,
2013-01-30 16:16:00,63.9,61.5,29.55,SSW,204,18.0,21.0,92,0.05,,---,0.40,VWS V14.01,2013-01-30 21:16:00,
2013-01-30 16:20:00,63.9,61.5,29.54,SW,217,12.0,26.0,92,0.04,,---,0.40,VWS V14.01,2013-01-30 21:20:00,
2013-01-30 16:21:00,63.9,61.5,29.54,SSW,198,9.0,11.0,92,0.04,,---,0.40,VWS V14.01,2013-01-30 21:21:00,
2013-01-30 16:25:00,63.9,61.5,29.54,SSW,212,17.0,22.0,92,0.04,,---,0.40,VWS V14.01,2013-01-30 21:25:00,
2013-01-30 16:26:00,63.9,61.5,29.54,SSW,196,13.0,15.0,92,0.04,,---,0.40,VWS V14.01,2013-01-30 21:26:00,
2013-01-30 16:30:00,63.9,61.5,29.53,SSW,211,15.0,21.0,92,0.03,,---,0.40,VWS V14.01,2013-01-30 21:30:00,
2013-01-30 16:31:00,63.9,61.5,29.54,SSW,206,15.0,21.0,92,0.03,,---,0.40,VWS V14.01,2013-01-30 21:31:00,
2013-01-30 16:35:00,64.1,61.7,29.53,SSW,200,12.0,25.0,92,0.03,,---,0.40,VWS V14.01,2013-01-30 21:35:00,
2013-01-30 16:36:00,63.9,61.5,29.53,South,187,24.0,25.0,92,0.03,,---,0.40,VWS V14.01,2013-01-30 21:36:00,
2013-01-30 16:40:00,64.1,61.4,29.53,SW,230,15.0,23.0,91,0.03,,---,0.40,VWS V14.01,2013-01-30 21:40:00,
2013-01-30 16:41:00,64.1,61.7,29.53,SSW,200,12.0,12.0,92,0.03,,---,0.40,VWS V14.01,2013-01-30 21:41:00,
2013-01-30 16:45:00,64.1,61.4,29.53,SW,214,14.0,19.0,91,0.03,,---,0.40,VWS V14.01,2013-01-30 21:45:00,
2013-01-30 16:49:00,64.1,61.4,29.53,SSW,198,14.0,18.0,91,0.03,,---,0.40,VWS V14.01,2013-01-30 21:49:00,
2013-01-30 16:50:00,64.3,61.3,29.53,SSW,207,13.0,19.0,90,0.03,,---,0.40,VWS V14.01,2013-01-30 21:50:00,
2013-01-30 16:54:00,64.3,61.3,29.53,SW,222,5.0,19.0,90,0.03,,---,0.40,VWS V14.01,2013-01-30 21:54:00,
2013-01-30 16:55:00,64.4,61.4,29.53,SSW,192,11.0,18.0,90,0.03,,---,0.40,VWS V14.01,2013-01-30 21:55:00,
2013-01-30 16:59:00,64.4,61.4,29.53,SW,221,11.0,18.0,90,0.03,,---,0.40,VWS V14.01,2013-01-30 21:59:00,
2013-01-30 17:00:00,64.4,61.4,29.52,SSW,213,5.0,19.0,90,0.02,,---,0.40,VWS V14.01,2013-01-30 22:00:00,
2013-01-30 17:04:00,64.4,61.4,29.52,SSW,211,8.0,19.0,90,0.02,,---,0.40,VWS V14.01,2013-01-30 22:04:00,
2013-01-30 17:05:00,64.4,61.1,29.52,SW,221,10.0,16.0,89,0.01,,---,0.40,VWS V14.01,2013-01-30 22:05:00,
2013-01-30 17:09:00,64.4,61.1,29.52,SW,218,6.0,16.0,89,0.01,,---,0.40,VWS V14.01,2013-01-30 22:09:00,
2013-01-30 17:10:00,64.4,61.1,29.52,SW,219,12.0,16.0,89,0.00,,---,0.40,VWS V14.01,2013-01-30 22:10:00,
2013-01-30 17:14:00,64.4,61.1,29.52,South,183,13.0,15.0,89,0.00,,---,0.40,VWS V14.01,2013-01-30 22:14:00,
2013-01-30 17:15:00,64.4,61.1,29.50,SSW,200,13.0,23.0,89,0.00,,---,0.40,VWS V14.01,2013-01-30 22:15:00,
2013-01-30 17:19:00,64.4,61.1,29.50,SW,218,20.0,23.0,89,0.00,,---,0.40,VWS V14.01,2013-01-30 22:19:00,
2013-01-30 17:20:00,64.6,61.0,29.50,SSW,205,15.0,20.0,88,0.00,,---,0.40,VWS V14.01,2013-01-30 22:20:00,
2013-01-30 17:24:00,64.6,61.0,29.50,WSW,246,11.0,20.0,88,0.00,,---,0.40,VWS V14.01,2013-01-30 22:24:00,
2013-01-30 17:25:00,64.7,61.1,29.50,SSW,193,10.0,21.0,88,0.00,,---,0.40,VWS V14.01,2013-01-30 22:25:00,
2013-01-30 17:29:00,64.7,61.1,29.50,SW,227,9.0,21.0,88,0.00,,---,0.40,VWS V14.01,2013-01-30 22:29:00,
2013-01-30 17:30:00,64.7,61.1,29.49,SW,227,6.0,17.0,88,0.00,,---,0.40,VWS V14.01,2013-01-30 22:30:00,
2013-01-30 17:34:00,64.7,60.8,29.49,SW,232,10.0,17.0,87,0.00,,---,0.40,VWS V14.01,2013-01-30 22:34:00,
2013-01-30 17:35:00,64.7,60.8,29.49,SSW,201,9.0,19.0,87,0.00,,---,0.40,VWS V14.01,2013-01-30 22:35:00,
2013-01-30 17:39:00,64.7,60.8,29.49,SSW,211,11.0,19.0,87,0.00,,---,0.40,VWS V14.01,2013-01-30 22:39:00,
2013-01-30 17:40:00,64.7,60.8,29.49,SSW,204,10.0,15.0,87,0.00,,---,0.40,VWS V14.01,2013-01-30 22:40:00,
2013-01-30 17:44:00,64.7,60.8,29.49,SSW,209,10.0,15.0,87,0.00,,---,0.40,VWS V14.01,2013-01-30 22:44:00,
2013-01-30 17:45:00,64.6,61.0,29.47,South,172,10.0,14.0,88,0.00,,---,0.40,VWS V14.01,2013-01-30 22:45:00,
2013-01-30 17:49:00,64.6,61.0,29.47,SSE,157,9.0,14.0,88,0.00,,---,0.40,VWS V14.01,2013-01-30 22:49:00,
2013-01-30 17:50:00,64.4,60.8,29.47,SW,226,6.0,19.0,88,0.00,,---,0.40,VWS V14.01,2013-01-30 22:50:00,
2013-01-30 17:54:00,64.4,60.8,29.47,SSW,210,14.0,19.0,88,0.00,,---,0.40,VWS V14.01,2013-01-30 22:54:00,
2013-01-30 17:55:00,64.4,60.8,29.47,SSW,207,5.0,11.0,88,0.00,,---,0.40,VWS V14.01,2013-01-30 22:55:00,
2013-01-30 17:59:00,64.4,60.8,29.47,SW,221,6.0,11.0,88,0.00,,---,0.40,VWS V14.01,2013-01-30 22:59:00,
2013-01-30 18:00:00,64.4,60.8,29.48,West,279,11.0,14.0,88,0.00,,---,0.40,VWS V14.01,2013-01-30 23:00:00,
2013-01-30 18:04:00,64.4,60.8,29.48,WSW,258,11.0,14.0,88,0.00,,---,0.40,VWS V14.01,2013-01-30 23:04:00,
2013-01-30 18:05:00,63.1,58.5,29.48,NW,322,7.0,33.0,85,0.30,,---,0.70,VWS V14.01,2013-01-30 23:05:00,
2013-01-30 18:09:00,63.4,58.8,29.48,North,355,6.0,33.0,85,0.25,,---,0.65,VWS V14.01,2013-01-30 23:09:00,
2013-01-30 18:10:00,61.5,57.0,29.48,SW,228,6.0,13.0,85,0.44,,---,0.84,VWS V14.01,2013-01-30 23:10:00,
2013-01-30 18:14:00,61.7,57.2,29.48,SW,229,5.0,13.0,85,0.42,,---,0.82,VWS V14.01,2013-01-30 23:14:00,
2013-01-30 18:15:00,60.4,56.5,29.51,SW,225,6.0,9.0,87,0.49,,---,0.89,VWS V14.01,2013-01-30 23:15:00,
2013-01-30 18:19:00,60.6,56.7,29.51,WSW,238,4.0,9.0,87,0.48,,---,0.88,VWS V14.01,2013-01-30 23:19:00,
2013-01-30 18:20:00,59.8,56.2,29.51,SW,233,2.0,7.0,88,0.50,,---,0.90,VWS V14.01,2013-01-30 23:20:00,
2013-01-30 18:24:00,60.0,56.4,29.51,SW,233,3.0,7.0,88,0.50,,---,0.90,VWS V14.01,2013-01-30 23:24:00,
2013-01-30 18:30:00,59.2,56.0,29.51,SW,233,5.0,5.0,89,0.00,,---,0.91,VWS V14.01,2013-01-30 23:30:00,
2013-01-30 18:35:00,58.6,55.7,29.51,South,174,7.0,11.0,90,0.51,,---,0.91,VWS V14.01,2013-01-30 23:35:00,
2013-01-30 18:40:00,58.0,55.4,29.51,SE,128,6.0,13.0,91,0.52,,---,0.92,VWS V14.01,2013-01-30 23:40:00,
2013-01-30 18:45:00,57.7,55.7,29.51,South,174,14.0,14.0,93,0.53,,---,0.93,VWS V14.01,2013-01-30 23:45:00,
2013-01-30 18:50:00,57.2,55.5,29.49,SE,129,0.0,12.0,94,0.54,,---,0.94,VWS V14.01,2013-01-30 23:50:00,
2013-01-30 18:55:00,57.1,55.4,29.49,SE,130,0.0,5.0,94,0.54,,---,0.94,VWS V14.01,2013-01-30 23:55:00,
2013-01-30 19:00:00,56.7,55.3,29.49,SE,146,0.0,6.0,95,0.55,,---,0.95,VWS V14.01,2013-01-31 00:00:00,
2013-01-30 19:05:00,56.4,55.0,29.50,SE,138,4.0,9.0,95,0.56,,---,0.96,VWS V14.01,2013-01-31 00:05:00,
2013-01-30 19:10:00,56.3,54.9,29.50,SSE,151,4.0,5.0,95,0.56,,---,0.96,VWS V14.01,2013-01-31 00:10:00,
2013-01-30 19:15:00,56.0,54.9,29.50,SSE,152,0.0,4.0,96,0.26,,---,0.96,VWS V14.01,2013-01-31 00:15:00,
2013-01-30 19:20:00,55.8,54.7,29.50,SW,221,4.0,4.0,96,0.13,,---,0.97,VWS V14.01,2013-01-31 00:20:00,
2013-01-30 19:25:00,55.8,54.7,29.50,SW,220,3.0,4.0,96,0.08,,---,0.97,VWS V14.01,2013-01-31 00:25:00,
2013-01-30 19:30:00,55.8,54.7,29.50,SW,233,5.0,6.0,96,0.08,,---,0.98,VWS V14.01,2013-01-31 00:30:00,
2013-01-30 19:35:00,55.7,54.9,29.49,SW,233,0.0,5.0,97,0.09,,---,1.00,VWS V14.01,2013-01-31 00:35:00,
2013-01-30 19:40:00,55.7,54.9,29.49,SW,233,3.0,4.0,97,0.10,,---,1.01,VWS V14.01,2013-01-31 00:40:00,
2013-01-30 19:45:00,55.7,54.9,29.49,SW,234,2.0,4.0,97,0.11,,---,1.03,VWS V14.01,2013-01-31 00:45:00,
2013-01-30 19:50:00,55.6,54.8,29.49,SW,234,1.0,3.0,97,0.11,,---,1.04,VWS V14.01,2013-01-31 00:50:00,
2013-01-30 19:55:00,55.6,54.8,29.49,SW,234,2.0,3.0,97,0.13,,---,1.07,VWS V14.01,2013-01-31 00:55:00,
2013-01-30 20:00:00,55.6,54.8,29.49,SW,234,0.0,1.0,97,0.13,,---,1.07,VWS V14.01,2013-01-31 01:00:00,
2013-01-30 20:05:00,55.4,54.6,29.48,SW,234,2.0,3.0,97,0.16,,---,1.11,VWS V14.01,2013-01-31 01:05:00,
2013-01-30 20:10:00,55.4,54.8,29.48,SW,234,2.0,3.0,98,0.19,,---,1.15,VWS V14.01,2013-01-31 01:10:00,
2013-01-30 20:14:00,55.4,54.8,29.48,NNW,347,0.0,4.0,98,0.21,,---,1.17,VWS V14.01,2013-01-31 01:14:00,
2013-01-30 20:19:00,55.4,54.8,29.45,NNW,347,0.0,2.0,98,0.24,,---,1.20,VWS V14.01,2013-01-31 01:19:00,
2013-01-30 20:24:00,55.4,54.8,29.45,NNE,19,4.0,5.0,98,0.26,,---,1.23,VWS V14.01,2013-01-31 01:24:00,
2013-01-30 20:29:00,55.4,54.8,29.45,NE,55,3.0,5.0,98,0.28,,---,1.25,VWS V14.01,2013-01-31 01:29:00,
2013-01-30 20:34:00,55.3,54.8,29.43,NE,55,0.0,3.0,98,0.30,,---,1.28,VWS V14.01,2013-01-31 01:34:00,
2013-01-30 20:39:00,55.3,54.8,29.43,NE,55,0.0,3.0,98,0.29,,---,1.29,VWS V14.01,2013-01-31 01:39:00,
2013-01-30 20:44:00,55.3,54.8,29.43,NE,55,1.0,2.0,98,0.31,,---,1.32,VWS V14.01,2013-01-31 01:44:00,
2013-01-30 20:49:00,55.3,55.0,29.41,NE,55,3.0,3.0,99,0.31,,---,1.34,VWS V14.01,2013-01-31 01:49:00,
2013-01-30 20:54:00,55.4,55.1,29.41,NE,55,3.0,3.0,99,0.33,,---,1.37,VWS V14.01,2013-01-31 01:54:00,
2013-01-30 20:59:00,55.4,55.1,29.41,NE,54,2.0,3.0,99,0.36,,---,1.43,VWS V14.01,2013-01-31 01:59:00,
2013-01-30 21:04:00,55.3,55.0,29.40,NE,54,4.0,4.0,99,0.40,,---,1.47,VWS V14.01,2013-01-31 02:04:00,
2013-01-30 21:09:00,55.3,55.0,29.40,NNE,30,4.0,5.0,99,0.38,,---,1.50,VWS V14.01,2013-01-31 02:09:00,
2013-01-30 21:14:00,55.3,55.0,29.40,NNE,30,2.0,3.0,99,0.39,,---,1.54,VWS V14.01,2013-01-31 02:14:00,
2013-01-30 21:19:00,55.3,55.0,29.38,NE,38,3.0,5.0,99,0.42,,---,1.60,VWS V14.01,2013-01-31 02:19:00,
2013-01-30 21:24:00,55.1,54.8,29.38,WNW,298,3.0,4.0,99,0.44,,---,1.64,VWS V14.01,2013-01-31 02:24:00,
2013-01-30 21:29:00,55.1,54.8,29.38,NW,313,3.0,5.0,99,0.51,,---,1.74,VWS V14.01,2013-01-31 02:29:00,
2013-01-30 21:34:00,55.1,54.8,29.38,WNW,300,2.0,5.0,99,0.54,,---,1.79,VWS V14.01,2013-01-31 02:34:00,
2013-01-30 21:39:00,55.1,54.8,29.38,WNW,296,2.0,4.0,99,0.56,,---,1.84,VWS V14.01,2013-01-31 02:39:00,
2013-01-30 21:44:00,55.1,54.8,29.38,NNE,28,3.0,6.0,99,0.62,,---,1.91,VWS V14.01,2013-01-31 02:44:00,
2013-01-30 21:49:00,55.0,54.7,29.36,NNE,28,0.0,3.0,99,0.63,,---,1.95,VWS V14.01,2013-01-31 02:49:00,
2013-01-30 21:54:00,54.8,54.5,29.36,SE,137,0.0,5.0,99,0.68,,---,2.02,VWS V14.01,2013-01-31 02:54:00,
2013-01-30 21:59:00,54.8,54.5,29.36,NNW,329,1.0,6.0,99,0.71,,---,2.08,VWS V14.01,2013-01-31 02:59:00,
2013-01-30 22:04:00,54.8,54.5,29.34,North,5,3.0,6.0,99,0.72,,---,2.15,VWS V14.01,2013-01-31 03:04:00,
2013-01-30 22:09:00,54.8,54.8,29.34,North,5,2.0,2.0,100,0.73,,---,2.20,VWS V14.01,2013-01-31 03:09:00,
2013-01-30 22:14:00,54.8,54.8,29.34,North,355,3.0,4.0,100,0.73,,---,2.24,VWS V14.01,2013-01-31 03:14:00,
2013-01-30 22:19:00,54.8,54.8,29.32,NNW,345,0.0,4.0,100,0.77,,---,2.31,VWS V14.01,2013-01-31 03:19:00,
2013-01-30 22:24:00,54.8,54.8,29.32,NNW,345,1.0,2.0,100,0.74,,---,2.35,VWS V14.01,2013-01-31 03:24:00,
2013-01-30 22:29:00,54.8,54.8,29.32,NNW,345,2.0,2.0,100,0.75,,---,2.40,VWS V14.01,2013-01-31 03:29:00,
2013-01-30 22:34:00,54.8,54.8,29.33,West,261,2.0,5.0,100,0.74,,---,2.49,VWS V14.01,2013-01-31 03:34:00,
2013-01-30 22:39:00,54.8,54.8,29.33,East,97,4.0,4.0,100,0.74,,---,2.53,VWS V14.01,2013-01-31 03:39:00,
2013-01-30 22:44:00,54.8,54.8,29.33,NE,40,0.0,7.0,100,0.69,,---,2.54,VWS V14.01,2013-01-31 03:44:00,
2013-01-30 22:49:00,54.8,54.8,29.29,NE,40,0.0,2.0,100,0.64,,---,2.55,VWS V14.01,2013-01-31 03:49:00,
2013-01-30 22:54:00,54.7,54.7,29.29,NE,40,1.0,1.0,100,0.59,,---,2.55,VWS V14.01,2013-01-31 03:54:00,
2013-01-30 22:59:00,54.7,54.7,29.29,NE,40,0.0,3.0,100,0.52,,---,2.55,VWS V14.01,2013-01-31 03:59:00,
2013-01-30 23:04:00,54.7,54.7,29.29,NE,40,2.0,3.0,100,0.46,,---,2.55,VWS V14.01,2013-01-31 04:04:00,
2013-01-30 23:09:00,54.7,54.7,29.29,NE,40,1.0,2.0,100,0.41,,---,2.56,VWS V14.01,2013-01-31 04:09:00,
2013-01-30 23:14:00,54.5,54.5,29.29,NE,40,0.0,1.0,100,0.37,,---,2.57,VWS V14.01,2013-01-31 04:14:00,
2013-01-30 23:19:00,54.5,54.5,29.26,NE,40,0.0,3.0,100,0.33,,---,2.58,VWS V14.01,2013-01-31 04:19:00,
2013-01-30 23:24:00,54.5,54.5,29.26,NE,41,0.0,2.0,100,0.28,,---,2.59,VWS V14.01,2013-01-31 04:24:00,
2013-01-30 23:29:00,54.4,54.4,29.26,NE,41,3.0,3.0,100,0.24,,---,2.59,VWS V14.01,2013-01-31 04:29:00,
2013-01-30 23:34:00,54.5,54.5,29.26,NW,312,2.0,5.0,100,0.24,,---,2.67,VWS V14.01,2013-01-31 04:34:00,
2013-01-30 23:39:00,54.7,54.7,29.27,NW,306,4.0,6.0,100,0.29,,---,2.79,VWS V14.01,2013-01-31 04:39:00,
2013-01-30 23:44:00,55.3,55.3,29.27,West,275,1.0,11.0,100,0.34,,---,2.87,VWS V14.01,2013-01-31 04:44:00,
2013-01-30 23:49:00,55.7,55.7,29.27,West,271,4.0,10.0,100,0.35,,---,2.89,VWS V14.01,2013-01-31 04:49:00,
2013-01-30 23:54:00,56.0,56.0,29.23,SW,232,6.0,8.0,100,0.34,,---,2.89,VWS V14.01,2013-01-31 04:54:00,
2013-01-30 23:59:00,55.8,55.8,29.23,WSW,239,4.0,7.0,100,0.35,,---,2.90,VWS V14.01,2013-01-31 04:59:00,